createdAt,value
2022-12-29T00:00:16.969Z,95.00
2022-12-29T00:02:43.855Z,95.00
2022-12-29T00:05:10.736Z,95.10
2022-12-29T00:07:37.573Z,95.30
2022-12-29T00:10:04.886Z,95.30
2022-12-29T00:12:51.559Z,95.30
2022-12-29T00:15:36.755Z,95.20
2022-12-29T00:18:03.754Z,95.10
2022-12-29T00:20:49.062Z,95.00
2022-12-29T00:23:34.460Z,95.30
2022-12-29T00:26:23.158Z,95.20
2022-12-29T00:29:10.125Z,95.10
2022-12-29T00:31:55.441Z,95.20
2022-12-29T00:34:40.806Z,95.20
2022-12-29T00:37:07.601Z,95.00
2022-12-29T00:39:52.761Z,95.20
2022-12-29T00:42:37.891Z,95.20
2022-12-29T00:45:05.027Z,95.20
2022-12-29T00:47:31.679Z,95.30
2022-12-29T00:49:58.356Z,95.00
2022-12-29T00:52:25.058Z,95.10
2022-12-29T00:54:51.738Z,95.30
2022-12-29T00:57:18.601Z,95.40
2022-12-29T00:59:46.187Z,95.20
2022-12-29T01:02:13.002Z,95.20
2022-12-29T01:04:39.950Z,95.10
2022-12-29T01:07:06.821Z,95.10
2022-12-29T01:09:52.723Z,95.00
2022-12-29T01:12:39.512Z,95.20
2022-12-29T01:15:07.231Z,95.00
2022-12-29T01:17:34.073Z,95.00
2022-12-29T01:20:03.384Z,95.20
2022-12-29T01:22:30.163Z,95.00
2022-12-29T01:24:56.882Z,94.90
2022-12-29T01:27:23.518Z,95.00
2022-12-29T01:29:50.245Z,95.00
2022-12-29T01:32:17.587Z,95.10
2022-12-29T01:34:44.955Z,95.10
2022-12-29T01:37:12.340Z,95.10
2022-12-29T01:39:39.075Z,95.00
2022-12-29T01:42:06.227Z,94.90
2022-12-29T01:44:52.920Z,95.00
2022-12-29T01:47:49.478Z,95.00
2022-12-29T01:50:36.853Z,94.90
2022-12-29T01:53:16.519Z,95.00
2022-12-29T01:55:49.931Z,94.90
2022-12-29T01:58:21.097Z,95.00
2022-12-29T02:00:47.835Z,94.90
2022-12-29T02:03:16.385Z,94.90
2022-12-29T02:05:56.552Z,94.80
2022-12-29T02:08:26.983Z,94.80
2022-12-29T02:10:54.926Z,94.70
2022-12-29T02:13:21.606Z,94.70
2022-12-29T02:15:54.168Z,94.60
2022-12-29T02:19:04.599Z,94.60
2022-12-29T02:21:59.267Z,94.50
2022-12-29T02:24:29.016Z,94.50
2022-12-29T02:27:26.483Z,94.30
2022-12-29T02:30:19.221Z,94.30
2022-12-29T02:32:54.753Z,94.40
2022-12-29T02:35:39.889Z,94.40
2022-12-29T02:38:32.635Z,94.40
2022-12-29T02:41:17.522Z,94.40
2022-12-29T02:43:48.774Z,94.50
2022-12-29T02:46:38.000Z,94.50
2022-12-29T02:49:27.267Z,94.50
2022-12-29T02:52:16.834Z,94.60
2022-12-29T02:54:43.888Z,94.60
2022-12-29T02:57:22.668Z,95.10
2022-12-29T02:59:54.477Z,95.00
2022-12-29T03:02:59.621Z,95.00
2022-12-29T03:06:07.887Z,95.00
2022-12-29T03:09:02.904Z,95.00
2022-12-29T03:11:59.099Z,95.20
2022-12-29T03:15:03.482Z,95.10
2022-12-29T03:17:59.660Z,95.20
2022-12-29T03:20:32.834Z,95.40
2022-12-29T03:23:02.787Z,95.10
2022-12-29T03:25:33.171Z,95.40
2022-12-29T03:28:12.384Z,95.40
2022-12-29T03:30:41.307Z,95.60
2022-12-29T03:33:12.827Z,95.40
2022-12-29T03:35:43.028Z,95.40
2022-12-29T03:38:15.900Z,95.40
2022-12-29T03:40:45.952Z,95.50
2022-12-29T03:43:13.752Z,95.50
2022-12-29T03:45:41.323Z,95.40
2022-12-29T03:48:08.107Z,95.50
2022-12-29T03:50:34.974Z,95.30
2022-12-29T03:53:03.285Z,95.40
2022-12-29T03:55:29.975Z,95.40
2022-12-29T03:57:56.688Z,95.30
2022-12-29T04:00:23.327Z,95.40
2022-12-29T04:02:50.121Z,95.40
2022-12-29T04:05:16.947Z,95.60
2022-12-29T04:07:43.678Z,95.60
2022-12-29T04:10:10.408Z,95.60
2022-12-29T04:12:37.085Z,95.60
2022-12-29T04:15:04.531Z,95.60
2022-12-29T04:17:31.202Z,95.60
2022-12-29T04:20:17.823Z,95.60
2022-12-29T04:22:44.612Z,96.00
2022-12-29T04:25:11.455Z,95.60
2022-12-29T04:27:38.268Z,95.60
2022-12-29T04:30:05.502Z,95.70
2022-12-29T04:32:32.171Z,95.50
2022-12-29T04:34:58.862Z,95.50
2022-12-29T04:37:25.617Z,95.40
2022-12-29T04:39:52.299Z,95.50
2022-12-29T04:42:18.962Z,95.60
2022-12-29T04:44:45.679Z,95.50
2022-12-29T04:47:12.371Z,95.50
2022-12-29T04:49:39.045Z,95.50
2022-12-29T04:52:05.856Z,95.60
2022-12-29T04:54:32.518Z,95.60
2022-12-29T04:56:59.217Z,95.50
2022-12-29T04:59:25.897Z,95.50
2022-12-29T05:01:52.625Z,95.50
2022-12-29T05:04:19.424Z,95.50
2022-12-29T05:06:46.053Z,95.40
2022-12-29T05:09:12.721Z,95.40
2022-12-29T05:11:39.397Z,95.40
2022-12-29T05:14:06.061Z,95.30
2022-12-29T05:16:32.937Z,95.30
2022-12-29T05:18:59.673Z,95.30
2022-12-29T05:21:26.374Z,95.20
2022-12-29T05:23:52.994Z,95.20
2022-12-29T05:26:19.760Z,95.10
2022-12-29T05:28:46.532Z,95.10
2022-12-29T05:31:13.234Z,95.00
2022-12-29T05:33:40.056Z,95.10
2022-12-29T05:36:08.404Z,95.20
2022-12-29T05:38:35.747Z,95.20
2022-12-29T05:41:04.176Z,95.30
2022-12-29T05:43:30.967Z,95.30
2022-12-29T05:45:58.493Z,95.50
2022-12-29T05:48:25.217Z,95.60
2022-12-29T05:50:52.772Z,95.80
2022-12-29T05:53:19.612Z,95.90
2022-12-29T05:55:51.460Z,95.90
2022-12-29T05:58:18.714Z,96.00
2022-12-29T06:00:45.499Z,96.00
2022-12-29T06:03:12.510Z,96.00
2022-12-29T06:05:39.283Z,96.20
2022-12-29T06:08:06.031Z,96.20
2022-12-29T06:10:32.776Z,96.00
2022-12-29T06:12:59.555Z,96.00
2022-12-29T06:15:26.254Z,96.10
2022-12-29T06:17:52.918Z,96.00
2022-12-29T06:20:20.785Z,96.20
2022-12-29T06:22:47.596Z,96.10
2022-12-29T06:25:14.461Z,96.10
2022-12-29T06:27:41.290Z,96.10
2022-12-29T06:30:08.825Z,96.00
2022-12-29T06:32:36.065Z,96.00
2022-12-29T06:35:04.422Z,96.00
2022-12-29T06:37:31.384Z,96.10
2022-12-29T06:39:58.057Z,96.00
2022-12-29T06:42:24.820Z,96.00
2022-12-29T06:44:51.616Z,96.10
2022-12-29T06:47:18.279Z,96.00
2022-12-29T06:49:45.223Z,96.10
2022-12-29T06:52:13.196Z,96.10
2022-12-29T06:54:40.209Z,96.20
2022-12-29T06:57:09.449Z,96.10
2022-12-29T06:59:36.217Z,96.30
2022-12-29T07:02:03.466Z,95.90
2022-12-29T07:04:30.488Z,96.10
2022-12-29T07:06:57.227Z,96.00
2022-12-29T07:09:23.907Z,95.90
2022-12-29T07:11:51.317Z,95.90
2022-12-29T07:14:18.011Z,96.00
2022-12-29T07:16:44.836Z,96.00
2022-12-29T07:19:11.655Z,96.10
2022-12-29T07:21:38.415Z,96.10
2022-12-29T07:24:05.614Z,96.20
2022-12-29T07:26:36.344Z,96.20
2022-12-29T07:29:05.080Z,96.30
2022-12-29T07:31:32.208Z,96.20
2022-12-29T07:33:58.959Z,96.30
2022-12-29T07:36:30.777Z,96.40
2022-12-29T07:39:00.788Z,96.40
2022-12-29T07:41:27.568Z,96.50
2022-12-29T07:43:54.251Z,96.50
2022-12-29T07:46:54.083Z,96.50
2022-12-29T07:49:07.726Z,96.50
2022-12-29T07:51:34.494Z,96.50
2022-12-29T07:54:01.774Z,96.40
2022-12-29T07:56:28.526Z,96.50
2022-12-29T07:58:55.240Z,96.40
2022-12-29T08:01:24.319Z,96.30
2022-12-29T08:03:56.883Z,96.30
2022-12-29T08:06:24.681Z,96.30
2022-12-29T08:08:51.350Z,96.20
2022-12-29T08:11:18.073Z,96.20
2022-12-29T08:13:44.738Z,96.10
2022-12-29T08:16:11.478Z,96.00
2022-12-29T08:18:38.232Z,96.00
2022-12-29T08:21:05.472Z,95.90
2022-12-29T08:23:32.886Z,95.90
2022-12-29T08:26:01.246Z,95.90
2022-12-29T08:28:28.065Z,96.00
2022-12-29T08:30:55.329Z,95.90
2022-12-29T08:33:22.011Z,95.90
2022-12-29T08:35:49.010Z,95.80
2022-12-29T08:38:15.774Z,95.80
2022-12-29T08:40:42.597Z,95.70
2022-12-29T08:43:09.321Z,95.70
2022-12-29T08:45:36.111Z,95.70
2022-12-29T08:48:03.175Z,95.60
2022-12-29T08:50:29.841Z,95.50
2022-12-29T08:52:56.483Z,95.50
2022-12-29T08:55:23.459Z,95.50
2022-12-29T08:57:50.907Z,95.30
2022-12-29T09:00:17.745Z,95.20
2022-12-29T09:02:44.889Z,95.30
2022-12-29T09:05:11.717Z,95.20
2022-12-29T09:07:38.511Z,95.10
2022-12-29T09:10:05.727Z,95.20
2022-12-29T09:12:36.425Z,95.10
2022-12-29T09:15:04.399Z,95.10
2022-12-29T09:17:46.461Z,95.00
2022-12-29T09:20:14.237Z,94.90
2022-12-29T09:22:41.287Z,94.60
2022-12-29T09:25:09.314Z,94.70
2022-12-29T09:27:36.823Z,94.70
2022-12-29T09:30:06.890Z,94.70
2022-12-29T09:32:36.066Z,94.60
2022-12-29T09:35:06.726Z,94.20
2022-12-29T09:37:33.450Z,94.30
2022-12-29T09:40:00.152Z,94.40
2022-12-29T09:42:34.183Z,94.20
2022-12-29T09:45:21.043Z,94.20
2022-12-29T09:47:47.955Z,94.20
2022-12-29T09:50:30.343Z,94.00
2022-12-29T09:53:19.980Z,94.10
2022-12-29T09:55:52.966Z,93.90
2022-12-29T09:58:26.145Z,94.00
2022-12-29T10:01:07.435Z,93.90
2022-12-29T10:03:43.306Z,93.70
2022-12-29T10:06:15.151Z,93.50
2022-12-29T10:08:52.764Z,93.60
2022-12-29T10:11:33.065Z,93.50
2022-12-29T10:14:03.405Z,93.40
2022-12-29T10:16:39.263Z,93.30
2022-12-29T10:19:26.981Z,93.30
2022-12-29T10:22:13.099Z,93.20
2022-12-29T10:24:40.963Z,92.70
2022-12-29T10:27:13.147Z,93.00
2022-12-29T10:29:55.016Z,92.80
2022-12-29T10:32:32.196Z,92.80
2022-12-29T10:35:09.150Z,93.00
2022-12-29T10:37:42.937Z,92.60
2022-12-29T10:40:42.443Z,92.70
2022-12-29T10:43:27.864Z,92.30
2022-12-29T10:45:58.124Z,92.50
2022-12-29T10:48:32.222Z,92.30
2022-12-29T10:51:02.312Z,92.50
2022-12-29T10:53:38.624Z,91.70
2022-12-29T10:56:18.194Z,91.90
2022-12-29T10:58:50.093Z,92.10
2022-12-29T11:01:18.137Z,92.30
2022-12-29T11:04:00.195Z,91.80
2022-12-29T11:06:30.282Z,91.90
2022-12-29T11:09:14.905Z,92.00
2022-12-29T11:11:41.814Z,92.20
2022-12-29T11:14:20.188Z,92.20
2022-12-29T11:17:03.987Z,92.20
2022-12-29T11:19:39.063Z,91.70
2022-12-29T11:22:29.134Z,91.60
2022-12-29T11:25:05.596Z,91.50
2022-12-29T11:27:33.873Z,91.70
2022-12-29T11:30:00.591Z,91.60
2022-12-29T11:32:30.632Z,91.50
2022-12-29T11:34:59.601Z,91.60
2022-12-29T11:37:43.418Z,90.90
2022-12-29T11:40:19.642Z,90.90
2022-12-29T11:42:57.742Z,91.20
2022-12-29T11:45:27.802Z,91.10
2022-12-29T11:47:58.502Z,90.90
2022-12-29T11:50:38.600Z,90.60
2022-12-29T11:53:20.396Z,90.60
2022-12-29T11:55:59.500Z,90.40
2022-12-29T11:58:54.189Z,90.90
2022-12-29T12:01:29.926Z,90.60
2022-12-29T12:04:17.563Z,90.70
2022-12-29T12:06:57.986Z,90.10
2022-12-29T12:09:45.639Z,90.30
2022-12-29T12:12:25.700Z,89.90
2022-12-29T12:15:00.485Z,89.70
2022-12-29T12:17:39.354Z,89.50
2022-12-29T12:20:22.864Z,89.60
2022-12-29T12:23:09.642Z,89.80
2022-12-29T12:25:41.559Z,89.70
2022-12-29T12:28:21.691Z,88.50
2022-12-29T12:30:58.342Z,89.30
2022-12-29T12:33:31.081Z,89.00
2022-12-29T12:36:16.368Z,88.70
2022-12-29T12:39:06.328Z,88.50
2022-12-29T12:41:47.917Z,89.00
2022-12-29T12:44:32.497Z,88.00
2022-12-29T12:47:16.722Z,88.40
2022-12-29T12:49:52.188Z,88.30
2022-12-29T12:52:39.088Z,87.70
2022-12-29T12:55:34.388Z,88.70
2022-12-29T12:58:24.108Z,88.20
2022-12-29T13:01:28.384Z,87.80
2022-12-29T13:04:14.142Z,87.70
2022-12-29T13:07:11.453Z,87.40
2022-12-29T13:09:47.359Z,87.70
2022-12-29T13:12:25.162Z,87.30
2022-12-29T13:15:01.003Z,88.10
2022-12-29T13:17:34.012Z,87.20
2022-12-29T13:20:24.653Z,87.00
2022-12-29T13:23:20.757Z,86.80
2022-12-29T13:26:02.963Z,87.30
2022-12-29T13:29:08.680Z,86.30
2022-12-29T13:31:51.831Z,85.90
2022-12-29T13:34:29.710Z,86.40
2022-12-29T13:37:03.598Z,85.90
2022-12-29T13:39:35.151Z,85.60
2022-12-29T13:42:04.386Z,85.80
2022-12-29T13:44:58.414Z,86.10
2022-12-29T13:47:45.192Z,86.10
2022-12-29T13:50:27.446Z,86.10
2022-12-29T13:53:07.774Z,85.20
2022-12-29T13:55:42.320Z,84.70
2022-12-29T13:58:12.844Z,85.20
2022-12-29T14:00:48.863Z,85.40
2022-12-29T14:03:42.118Z,86.50
2022-12-29T14:06:15.126Z,85.40
2022-12-29T14:08:42.405Z,85.50
2022-12-29T14:11:12.202Z,86.10
2022-12-29T14:13:41.409Z,85.40
2022-12-29T14:16:11.810Z,85.40
2022-12-29T14:18:45.098Z,86.10
2022-12-29T14:21:14.819Z,84.60
2022-12-29T14:23:43.924Z,85.30
2022-12-29T14:26:14.610Z,85.30
2022-12-29T14:28:43.655Z,85.40
2022-12-29T14:31:16.669Z,84.70
2022-12-29T14:34:12.541Z,85.20
2022-12-29T14:36:54.622Z,85.30
2022-12-29T14:39:36.002Z,85.40
2022-12-29T14:42:11.661Z,85.60
2022-12-29T14:44:48.957Z,85.90
2022-12-29T14:47:38.497Z,85.80
2022-12-29T14:50:26.033Z,85.70
2022-12-29T14:53:03.788Z,86.30
2022-12-29T14:55:41.553Z,85.60
2022-12-29T14:58:15.030Z,86.10
2022-12-29T15:00:43.349Z,86.60
2022-12-29T15:03:25.316Z,86.70
2022-12-29T15:05:53.821Z,87.20
2022-12-29T15:08:33.085Z,87.20
2022-12-29T15:11:03.394Z,86.90
2022-12-29T15:13:38.846Z,87.40
2022-12-29T15:16:06.211Z,87.30
2022-12-29T15:18:34.175Z,87.30
2022-12-29T15:21:06.642Z,87.70
2022-12-29T15:23:35.886Z,87.90
2022-12-29T15:26:08.524Z,87.80
2022-12-29T15:28:44.324Z,88.10
2022-12-29T15:31:29.993Z,88.10
2022-12-29T15:34:11.402Z,87.70
2022-12-29T15:36:40.003Z,88.10
2022-12-29T15:39:31.297Z,87.60
2022-12-29T15:42:05.242Z,87.80
2022-12-29T15:44:43.437Z,87.90
2022-12-29T15:47:15.358Z,88.10
2022-12-29T15:49:44.601Z,87.70
2022-12-29T15:52:12.127Z,87.50
2022-12-29T15:54:43.037Z,87.90
2022-12-29T15:57:23.816Z,87.80
2022-12-29T15:59:51.445Z,87.50
2022-12-29T16:02:19.505Z,87.80
2022-12-29T16:05:16.233Z,87.00
2022-12-29T16:07:41.598Z,87.60
2022-12-29T16:10:39.768Z,88.00
2022-12-29T16:13:42.734Z,87.60
2022-12-29T16:16:35.402Z,85.90
2022-12-29T16:19:22.607Z,86.90
2022-12-29T16:21:49.817Z,87.10
2022-12-29T16:24:23.561Z,86.10
2022-12-29T16:26:59.309Z,86.10
2022-12-29T16:29:26.834Z,86.30
2022-12-29T16:32:01.539Z,86.80
2022-12-29T16:34:33.963Z,86.80
2022-12-29T16:37:03.585Z,87.00
2022-12-29T16:39:40.353Z,87.40
2022-12-29T16:42:36.201Z,87.80
2022-12-29T16:45:22.408Z,88.30
2022-12-29T16:48:07.524Z,88.50
2022-12-29T16:50:36.212Z,88.70
2022-12-29T16:53:04.950Z,88.70
2022-12-29T16:55:32.165Z,88.60
2022-12-29T16:58:00.921Z,88.70
2022-12-29T17:00:30.178Z,88.90
2022-12-29T17:03:01.893Z,89.00
2022-12-29T17:05:28.924Z,89.10
2022-12-29T17:08:01.615Z,89.30
2022-12-29T17:10:48.476Z,89.50
2022-12-29T17:13:15.408Z,89.40
2022-12-29T17:15:42.201Z,89.10
2022-12-29T17:18:13.901Z,89.40
2022-12-29T17:20:41.242Z,89.00
2022-12-29T17:23:19.744Z,89.30
2022-12-29T17:25:51.703Z,89.20
2022-12-29T17:28:30.991Z,89.30
2022-12-29T17:31:07.000Z,89.30
2022-12-29T17:33:38.765Z,89.30
2022-12-29T17:36:05.684Z,89.30
2022-12-29T17:38:35.843Z,89.40
2022-12-29T17:41:07.337Z,89.00
2022-12-29T17:43:36.960Z,89.00
2022-12-29T17:46:07.043Z,89.10
2022-12-29T17:48:34.076Z,89.50
2022-12-29T17:51:00.890Z,89.70
2022-12-29T17:53:30.079Z,89.20
2022-12-29T17:55:57.225Z,89.00
2022-12-29T17:58:26.299Z,89.20
2022-12-29T18:00:55.832Z,89.20
2022-12-29T18:03:30.472Z,88.90
2022-12-29T18:05:57.903Z,88.80
2022-12-29T18:08:24.627Z,88.50
2022-12-29T18:10:53.881Z,88.80
2022-12-29T18:13:40.352Z,88.50
2022-12-29T18:16:13.624Z,88.60
2022-12-29T18:18:40.639Z,88.40
2022-12-29T18:21:19.133Z,88.40
2022-12-29T18:23:46.179Z,88.50
2022-12-29T18:26:27.323Z,88.10
2022-12-29T18:28:58.898Z,88.20
2022-12-29T18:31:33.728Z,87.70
2022-12-29T18:34:07.243Z,87.90
2022-12-29T18:36:33.956Z,88.10
2022-12-29T18:39:00.749Z,88.30
2022-12-29T18:41:29.715Z,88.70
2022-12-29T18:43:57.338Z,88.60
2022-12-29T18:46:24.611Z,88.10
2022-12-29T18:48:52.703Z,88.70
2022-12-29T18:51:22.260Z,88.20
2022-12-29T18:53:49.753Z,88.30
2022-12-29T18:56:16.500Z,88.10
2022-12-29T18:58:43.198Z,88.40
2022-12-29T19:01:20.828Z,88.50
2022-12-29T19:03:48.208Z,88.20
2022-12-29T19:06:15.000Z,88.00
2022-12-29T19:08:42.079Z,88.10
2022-12-29T19:11:09.054Z,88.10
2022-12-29T19:13:35.899Z,88.40
2022-12-29T19:16:08.683Z,88.10
2022-12-29T19:18:44.562Z,88.10
2022-12-29T19:21:13.228Z,88.10
2022-12-29T19:23:40.187Z,87.90
2022-12-29T19:26:07.028Z,87.90
2022-12-29T19:28:33.705Z,88.20
2022-12-29T19:31:03.589Z,88.00
2022-12-29T19:33:30.461Z,88.10
2022-12-29T19:36:03.375Z,88.20
2022-12-29T19:38:31.187Z,88.40
2022-12-29T19:40:58.059Z,88.30
2022-12-29T19:43:24.755Z,88.10
2022-12-29T19:45:52.453Z,88.30
2022-12-29T19:48:20.485Z,88.40
2022-12-29T19:50:48.043Z,88.40
2022-12-29T19:53:15.242Z,88.50
2022-12-29T19:55:46.795Z,88.40
2022-12-29T19:58:15.005Z,88.20
2022-12-29T20:00:43.138Z,88.40
2022-12-29T20:03:10.484Z,88.40
2022-12-29T20:05:38.788Z,88.30
2022-12-29T20:08:05.588Z,88.70
2022-12-29T20:10:32.340Z,88.60
2022-12-29T20:12:59.130Z,88.70
2022-12-29T20:15:26.073Z,88.90
2022-12-29T20:20:39.778Z,88.70
2022-12-29T20:23:06.586Z,88.60
2022-12-29T20:25:48.615Z,88.40
2022-12-29T20:28:15.993Z,88.70
2022-12-29T20:30:43.581Z,88.90
2022-12-29T20:33:10.292Z,88.70
2022-12-29T20:35:37.598Z,88.80
2022-12-29T20:38:04.929Z,88.80
2022-12-29T20:40:31.861Z,88.70
2022-12-29T20:42:58.521Z,88.90
2022-12-29T20:45:25.370Z,88.60
2022-12-29T20:47:52.228Z,88.60
2022-12-29T20:50:22.042Z,89.00
2022-12-29T20:52:49.324Z,89.10
2022-12-29T20:55:16.112Z,89.10
2022-12-29T20:58:23.279Z,88.70
2022-12-29T21:00:30.471Z,88.40
2022-12-29T21:03:03.483Z,88.90
2022-12-29T21:05:30.303Z,88.60
2022-12-29T21:07:59.488Z,88.50
2022-12-29T21:10:26.283Z,88.50
2022-12-29T21:12:53.300Z,88.80
2022-12-29T21:15:20.237Z,88.80
2022-12-29T21:17:47.098Z,88.60
2022-12-29T21:20:19.836Z,88.80
2022-12-29T21:22:47.656Z,88.60
2022-12-29T21:25:14.877Z,88.60
2022-12-29T21:27:44.645Z,88.60
2022-12-29T21:30:13.319Z,88.40
2022-12-29T21:32:41.178Z,88.40
2022-12-29T21:35:08.981Z,88.40
2022-12-29T21:37:36.337Z,88.40
2022-12-29T21:40:04.815Z,88.40
2022-12-29T21:42:31.740Z,87.90
2022-12-29T21:45:20.884Z,87.90
2022-12-29T21:48:07.038Z,87.90
2022-12-29T21:50:33.825Z,88.00
2022-12-29T21:53:00.587Z,88.10
2022-12-29T21:55:27.284Z,88.20
2022-12-29T21:58:12.278Z,88.20
2022-12-29T22:01:14.282Z,87.90
2022-12-29T22:03:59.546Z,87.80
2022-12-29T22:06:44.934Z,88.10
2022-12-29T22:09:30.232Z,88.20
2022-12-29T22:12:15.139Z,87.90
2022-12-29T22:14:41.838Z,88.10
2022-12-29T22:17:14.029Z,88.00
2022-12-29T22:19:41.070Z,88.30
2022-12-29T22:22:07.900Z,88.30
2022-12-29T22:24:34.661Z,88.40
2022-12-29T22:27:01.367Z,89.10
2022-12-29T22:29:28.128Z,88.50
2022-12-29T22:31:54.897Z,88.80
2022-12-29T22:34:21.562Z,88.90
2022-12-29T22:36:48.751Z,88.70
2022-12-29T22:39:16.135Z,88.80
2022-12-29T22:41:45.539Z,88.80
2022-12-29T22:44:12.269Z,88.80
2022-12-29T22:46:39.047Z,88.80
2022-12-29T22:49:05.738Z,89.00
2022-12-29T22:51:32.381Z,89.10
2022-12-29T22:54:00.419Z,89.10
2022-12-29T22:56:27.085Z,89.30
2022-12-29T22:58:53.788Z,89.40
2022-12-29T23:01:23.994Z,89.40
2022-12-29T23:03:50.803Z,89.40
2022-12-29T23:06:18.062Z,89.40
2022-12-29T23:08:44.903Z,89.50
2022-12-29T23:11:13.227Z,89.30
2022-12-29T23:13:41.569Z,89.30
2022-12-29T23:16:08.493Z,89.30
2022-12-29T23:18:35.208Z,89.20
2022-12-29T23:21:02.881Z,89.30
2022-12-29T23:23:49.644Z,89.30
2022-12-29T23:26:18.435Z,89.40
2022-12-29T23:28:45.588Z,89.40
2022-12-29T23:31:12.439Z,89.50
2022-12-29T23:33:39.155Z,89.60
2022-12-29T23:36:06.317Z,89.50
2022-12-29T23:38:33.433Z,89.50
2022-12-29T23:41:00.190Z,89.60
2022-12-29T23:43:26.900Z,89.70
2022-12-29T23:45:53.615Z,89.60
2022-12-29T23:48:20.300Z,89.80
2022-12-29T23:50:47.320Z,89.80
2022-12-29T23:53:14.369Z,89.70
2022-12-29T23:55:43.137Z,89.80
2022-12-29T23:58:10.944Z,89.80
